MSR49 HEGN-HECA
Flight info
| Callsign | MSR49 |
|---|---|
| Flight time | 0h 47m |
| Altitude | 24000 |
| Route | HGD M872 SEMRU A727 CVO |
| Aircraft | A20N/M-SDE2E3FGHIRWXY/LB1 |
Departure
| Time | 2026-04-28 18:10 |
|---|---|
| Airport | Hurghada International Airport (HEGN) |
Arrival
| Time | 2026-04-28 18:58 |
|---|---|
| Airport | Cairo International Airport (HECA) |
| Time | Latitude | Longitude | Altitude | Speed | Heading |
|---|---|---|---|---|---|
| 2026-04-28 17:40 | 27.17711 | 33.80678 | 58 ft | 0 kts | 75° |
| 2026-04-28 18:02 | 27.17706 | 33.80658 | 51 ft | 4 kts | 77° |
| 2026-04-28 18:02 | 27.17700 | 33.80628 | 49 ft | 4 kts | 80° |
| 2026-04-28 18:03 | 27.17697 | 33.80598 | 51 ft | 4 kts | 89° |
| 2026-04-28 18:03 | 27.17700 | 33.80569 | 51 ft | 4 kts | 126° |
| 2026-04-28 18:03 | 27.17707 | 33.80561 | 49 ft | 1 kts | 154° |
| 2026-04-28 18:06 | 27.17690 | 33.80570 | 52 ft | 8 kts | 156° |
| 2026-04-28 18:06 | 27.17621 | 33.80592 | 51 ft | 12 kts | 164° |
| 2026-04-28 18:07 | 27.17527 | 33.80610 | 58 ft | 14 kts | 189° |
| 2026-04-28 18:07 | 27.17479 | 33.80544 | 53 ft | 12 kts | 253° |
| 2026-04-28 18:07 | 27.17453 | 33.80442 | 52 ft | 16 kts | 245° |
| 2026-04-28 18:07 | 27.17333 | 33.80427 | 51 ft | 20 kts | 163° |
| 2026-04-28 18:08 | 27.17191 | 33.80474 | 49 ft | 23 kts | 162° |
| 2026-04-28 18:08 | 27.17029 | 33.80515 | 51 ft | 25 kts | 168° |
| 2026-04-28 18:08 | 27.16899 | 33.80516 | 48 ft | 18 kts | 231° |
| 2026-04-28 18:08 | 27.16886 | 33.80490 | 48 ft | 0 kts | 246° |
| 2026-04-28 18:09 | 27.16880 | 33.80466 | 48 ft | 11 kts | 258° |
| 2026-04-28 18:09 | 27.16914 | 33.80377 | 45 ft | 14 kts | 344° |
| 2026-04-28 18:09 | 27.16976 | 33.80361 | 45 ft | 11 kts | 341° |
| 2026-04-28 18:10 | 27.17227 | 33.80282 | 51 ft | 72 kts | 345° |
| 2026-04-28 18:10 | 27.17920 | 33.80079 | 52 ft | 131 kts | 345° |
| 2026-04-28 18:10 | 27.18934 | 33.79781 | 229 ft | 156 kts | 346° |
| 2026-04-28 18:10 | 27.19965 | 33.79550 | 849 ft | 152 kts | 350° |
| 2026-04-28 18:11 | 27.20999 | 33.79402 | 1479 ft | 148 kts | 354° |
| 2026-04-28 18:11 | 27.21964 | 33.79288 | 2207 ft | 131 kts | 343° |
| 2026-04-28 18:11 | 27.22776 | 33.78870 | 2605 ft | 135 kts | 322° |
| 2026-04-28 18:11 | 27.23493 | 33.78162 | 3007 ft | 136 kts | 308° |
| 2026-04-28 18:12 | 27.23942 | 33.77238 | 3536 ft | 133 kts | 289° |
| 2026-04-28 18:12 | 27.24233 | 33.76257 | 4105 ft | 133 kts | 284° |
| 2026-04-28 18:12 | 27.24447 | 33.75236 | 4697 ft | 135 kts | 279° |
| 2026-04-28 18:12 | 27.24580 | 33.74202 | 5364 ft | 133 kts | 274° |
| 2026-04-28 18:13 | 27.24633 | 33.73153 | 5978 ft | 136 kts | 269° |
| 2026-04-28 18:13 | 27.24604 | 33.72086 | 6596 ft | 137 kts | 265° |
| 2026-04-28 18:13 | 27.24692 | 33.71003 | 7127 ft | 145 kts | 288° |
| 2026-04-28 18:13 | 27.25034 | 33.69964 | 7815 ft | 140 kts | 290° |
| 2026-04-28 18:14 | 27.25378 | 33.68943 | 8419 ft | 142 kts | 288° |
| 2026-04-28 18:14 | 27.25698 | 33.67878 | 8974 ft | 145 kts | 287° |
| 2026-04-28 18:14 | 27.25985 | 33.66794 | 9565 ft | 148 kts | 284° |
| 2026-04-28 18:14 | 27.26272 | 33.65544 | 9842 ft | 184 kts | 282° |
| 2026-04-28 18:15 | 27.26531 | 33.63998 | 10207 ft | 214 kts | 278° |
| 2026-04-28 18:15 | 27.26718 | 33.62284 | 10854 ft | 234 kts | 278° |
| 2026-04-28 18:15 | 27.27226 | 33.60428 | 11458 ft | 258 kts | 294° |
| 2026-04-28 18:15 | 27.28103 | 33.58563 | 12012 ft | 282 kts | 300° |
| 2026-04-28 18:16 | 27.29150 | 33.56601 | 12652 ft | 300 kts | 301° |
| 2026-04-28 18:16 | 27.30220 | 33.54597 | 13644 ft | 305 kts | 300° |
| 2026-04-28 18:16 | 27.31296 | 33.52527 | 14656 ft | 309 kts | 300° |
| 2026-04-28 18:16 | 27.32371 | 33.50408 | 15627 ft | 314 kts | 299° |
| 2026-04-28 18:17 | 27.33450 | 33.48252 | 16562 ft | 319 kts | 299° |
| 2026-04-28 18:17 | 27.34540 | 33.46057 | 17474 ft | 324 kts | 298° |
| 2026-04-28 18:17 | 27.35644 | 33.43829 | 18357 ft | 328 kts | 298° |
| 2026-04-28 18:17 | 27.36763 | 33.41570 | 19213 ft | 333 kts | 298° |
| 2026-04-28 18:18 | 27.37899 | 33.39278 | 20042 ft | 337 kts | 298° |
| 2026-04-28 18:18 | 27.39049 | 33.36958 | 20841 ft | 342 kts | 298° |
| 2026-04-28 18:18 | 27.40213 | 33.34608 | 21614 ft | 346 kts | 298° |
| 2026-04-28 18:18 | 27.40992 | 33.33035 | 22095 ft | 349 kts | 298° |
| 2026-04-28 18:19 | 27.42584 | 33.29818 | 23041 ft | 354 kts | 298° |
| 2026-04-28 18:19 | 27.43785 | 33.27390 | 23715 ft | 358 kts | 298° |
| 2026-04-28 18:19 | 27.45003 | 33.24925 | 24335 ft | 363 kts | 298° |
| 2026-04-28 18:19 | 27.46258 | 33.22383 | 24543 ft | 381 kts | 298° |
| 2026-04-28 18:20 | 27.47574 | 33.19716 | 24713 ft | 398 kts | 298° |
| 2026-04-28 18:20 | 27.48946 | 33.16934 | 24877 ft | 414 kts | 298° |
| 2026-04-28 18:20 | 27.50363 | 33.14059 | 25243 ft | 424 kts | 298° |
| 2026-04-28 18:20 | 27.51800 | 33.11145 | 25815 ft | 426 kts | 298° |
| 2026-04-28 18:21 | 27.53244 | 33.08212 | 26302 ft | 430 kts | 298° |
| 2026-04-28 18:21 | 27.54698 | 33.05256 | 26768 ft | 434 kts | 298° |
| 2026-04-28 18:21 | 27.56176 | 33.02248 | 26969 ft | 444 kts | 298° |
| 2026-04-28 18:21 | 27.57696 | 32.99154 | 27001 ft | 458 kts | 298° |
| 2026-04-28 18:22 | 27.59258 | 32.95968 | 27000 ft | 471 kts | 298° |
| 2026-04-28 18:22 | 27.60859 | 32.92699 | 27000 ft | 483 kts | 298° |
| 2026-04-28 18:22 | 27.62498 | 32.89352 | 26999 ft | 492 kts | 298° |
| 2026-04-28 18:22 | 27.64161 | 32.85955 | 26999 ft | 498 kts | 298° |
| 2026-04-28 18:23 | 27.65840 | 32.82524 | 27000 ft | 502 kts | 298° |
| 2026-04-28 18:23 | 27.67736 | 32.79214 | 27001 ft | 504 kts | 308° |
| 2026-04-28 18:23 | 27.70159 | 32.76344 | 27001 ft | 507 kts | 319° |
| 2026-04-28 18:23 | 27.72983 | 32.73974 | 26486 ft | 495 kts | 324° |
| 2026-04-28 18:24 | 27.75662 | 32.71952 | 26765 ft | 463 kts | 323° |
| 2026-04-28 18:24 | 27.76566 | 32.71271 | 26888 ft | 461 kts | 322° |
| 2026-04-28 18:24 | 27.80910 | 32.67958 | 26953 ft | 437 kts | 322° |
| 2026-04-28 18:24 | 27.83351 | 32.66075 | 26961 ft | 413 kts | 322° |
| 2026-04-28 18:25 | 27.85659 | 32.64282 | 26973 ft | 393 kts | 321° |
| 2026-04-28 18:25 | 27.87893 | 32.62537 | 26957 ft | 393 kts | 321° |
| 2026-04-28 18:25 | 27.90158 | 32.60757 | 26977 ft | 398 kts | 321° |
| 2026-04-28 18:26 | 27.94701 | 32.57199 | 26976 ft | 397 kts | 321° |
| 2026-04-28 18:26 | 27.96968 | 32.55425 | 26982 ft | 397 kts | 321° |
| 2026-04-28 18:26 | 27.99240 | 32.53648 | 26980 ft | 397 kts | 321° |
| 2026-04-28 18:26 | 28.01510 | 32.51870 | 26977 ft | 397 kts | 321° |
| 2026-04-28 18:27 | 28.03779 | 32.50093 | 26992 ft | 397 kts | 321° |
| 2026-04-28 18:27 | 28.06052 | 32.48312 | 26993 ft | 397 kts | 321° |
| 2026-04-28 18:27 | 28.08323 | 32.46531 | 26991 ft | 397 kts | 321° |
| 2026-04-28 18:27 | 28.10590 | 32.44752 | 27004 ft | 397 kts | 321° |
| 2026-04-28 18:28 | 28.12864 | 32.42967 | 27009 ft | 397 kts | 321° |
| 2026-04-28 18:28 | 28.14364 | 32.41789 | 27008 ft | 397 kts | 321° |
| 2026-04-28 18:28 | 28.16636 | 32.40004 | 27007 ft | 397 kts | 321° |
| 2026-04-28 18:28 | 28.18903 | 32.38221 | 27013 ft | 397 kts | 321° |
| 2026-04-28 18:29 | 28.21170 | 32.36438 | 27019 ft | 397 kts | 321° |
| 2026-04-28 18:29 | 28.23439 | 32.34653 | 27021 ft | 397 kts | 321° |
| 2026-04-28 18:29 | 28.25706 | 32.32868 | 27027 ft | 397 kts | 321° |
| 2026-04-28 18:29 | 28.27970 | 32.31085 | 27027 ft | 397 kts | 321° |
| 2026-04-28 18:30 | 28.30237 | 32.29298 | 27030 ft | 396 kts | 321° |
| 2026-04-28 18:30 | 28.31737 | 32.28116 | 27024 ft | 396 kts | 321° |
| 2026-04-28 18:30 | 28.34766 | 32.25726 | 27039 ft | 396 kts | 321° |
| 2026-04-28 18:30 | 28.37031 | 32.23939 | 27035 ft | 396 kts | 321° |
| 2026-04-28 18:31 | 28.39295 | 32.22151 | 27036 ft | 397 kts | 321° |
| 2026-04-28 18:31 | 28.41560 | 32.20361 | 27035 ft | 397 kts | 321° |
| 2026-04-28 18:31 | 28.43823 | 32.18572 | 27031 ft | 396 kts | 321° |
| 2026-04-28 18:31 | 28.46084 | 32.16785 | 27031 ft | 397 kts | 321° |
| 2026-04-28 18:32 | 28.48348 | 32.14992 | 27029 ft | 396 kts | 321° |
| 2026-04-28 18:32 | 28.50611 | 32.13201 | 27029 ft | 397 kts | 321° |
| 2026-04-28 18:32 | 28.52876 | 32.11406 | 27031 ft | 397 kts | 321° |
| 2026-04-28 18:32 | 28.55138 | 32.09614 | 26997 ft | 395 kts | 321° |
| 2026-04-28 18:33 | 28.57390 | 32.07829 | 26770 ft | 396 kts | 321° |
| 2026-04-28 18:33 | 28.59651 | 32.06034 | 26263 ft | 396 kts | 322° |
| 2026-04-28 18:33 | 28.61911 | 32.04239 | 25563 ft | 396 kts | 322° |
| 2026-04-28 18:33 | 28.64172 | 32.02442 | 24856 ft | 395 kts | 322° |
| 2026-04-28 18:34 | 28.66422 | 32.00652 | 24170 ft | 394 kts | 322° |
| 2026-04-28 18:34 | 28.68665 | 31.98868 | 23560 ft | 391 kts | 322° |
| 2026-04-28 18:34 | 28.70869 | 31.97115 | 23127 ft | 382 kts | 322° |
| 2026-04-28 18:34 | 28.73020 | 31.95405 | 22726 ft | 373 kts | 322° |
| 2026-04-28 18:35 | 28.75146 | 31.93711 | 22331 ft | 374 kts | 322° |
| 2026-04-28 18:35 | 28.77278 | 31.92010 | 21947 ft | 375 kts | 322° |
| 2026-04-28 18:35 | 28.79407 | 31.90309 | 21571 ft | 372 kts | 322° |
| 2026-04-28 18:35 | 28.81514 | 31.88618 | 21315 ft | 369 kts | 322° |
| 2026-04-28 18:36 | 28.83611 | 31.86931 | 21061 ft | 369 kts | 322° |
| 2026-04-28 18:36 | 28.85708 | 31.85238 | 20640 ft | 370 kts | 322° |
| 2026-04-28 18:36 | 28.87798 | 31.83541 | 20157 ft | 367 kts | 322° |
| 2026-04-28 18:36 | 28.89861 | 31.81860 | 19676 ft | 362 kts | 322° |
| 2026-04-28 18:37 | 28.91904 | 31.80184 | 19206 ft | 362 kts | 322° |
| 2026-04-28 18:37 | 28.93945 | 31.78500 | 18734 ft | 362 kts | 322° |
| 2026-04-28 18:37 | 28.95968 | 31.76821 | 18285 ft | 358 kts | 322° |
| 2026-04-28 18:37 | 28.97978 | 31.75142 | 17617 ft | 358 kts | 322° |
| 2026-04-28 18:38 | 28.99949 | 31.73484 | 16964 ft | 356 kts | 322° |
| 2026-04-28 18:38 | 29.01943 | 31.71796 | 16200 ft | 358 kts | 322° |
| 2026-04-28 18:38 | 29.03935 | 31.70103 | 15383 ft | 355 kts | 322° |
| 2026-04-28 18:38 | 29.05893 | 31.68426 | 14593 ft | 349 kts | 322° |
| 2026-04-28 18:39 | 29.07893 | 31.66892 | 13828 ft | 344 kts | 331° |
| 2026-04-28 18:39 | 29.10034 | 31.65714 | 12983 ft | 339 kts | 335° |
| 2026-04-28 18:39 | 29.12174 | 31.64570 | 12158 ft | 341 kts | 335° |
| 2026-04-28 18:39 | 29.14300 | 31.63410 | 11342 ft | 336 kts | 335° |
| 2026-04-28 18:40 | 29.16386 | 31.62247 | 10542 ft | 330 kts | 335° |
| 2026-04-28 18:40 | 29.18421 | 31.61086 | 9816 ft | 324 kts | 334° |
| 2026-04-28 18:40 | 29.20409 | 31.59937 | 9047 ft | 317 kts | 334° |
| 2026-04-28 18:40 | 29.22362 | 31.58819 | 8367 ft | 309 kts | 334° |
| 2026-04-28 18:41 | 29.24254 | 31.57749 | 7879 ft | 298 kts | 334° |
| 2026-04-28 18:41 | 29.26083 | 31.56728 | 7380 ft | 288 kts | 334° |
| 2026-04-28 18:41 | 29.27854 | 31.55749 | 6900 ft | 279 kts | 334° |
| 2026-04-28 18:41 | 29.29582 | 31.54803 | 6413 ft | 271 kts | 334° |
| 2026-04-28 18:42 | 29.31268 | 31.53941 | 6086 ft | 257 kts | 343° |
| 2026-04-28 18:42 | 29.33022 | 31.53564 | 6014 ft | 260 kts | 350° |
| 2026-04-28 18:42 | 29.34740 | 31.53241 | 5998 ft | 238 kts | 349° |
| 2026-04-28 18:42 | 29.36342 | 31.52937 | 6002 ft | 237 kts | 349° |
| 2026-04-28 18:43 | 29.37968 | 31.52625 | 5994 ft | 235 kts | 349° |
| 2026-04-28 18:43 | 29.39587 | 31.52313 | 5998 ft | 238 kts | 349° |
| 2026-04-28 18:43 | 29.41217 | 31.51998 | 6001 ft | 237 kts | 349° |
| 2026-04-28 18:43 | 29.42844 | 31.51680 | 6008 ft | 239 kts | 349° |
| 2026-04-28 18:44 | 29.44471 | 31.51366 | 5994 ft | 236 kts | 349° |
| 2026-04-28 18:44 | 29.47701 | 31.50691 | 5879 ft | 236 kts | 339° |
| 2026-04-28 18:44 | 29.49208 | 31.49936 | 5847 ft | 237 kts | 335° |
| 2026-04-28 18:45 | 29.50702 | 31.49153 | 5873 ft | 234 kts | 335° |
| 2026-04-28 18:45 | 29.52153 | 31.48394 | 5809 ft | 224 kts | 335° |
| 2026-04-28 18:45 | 29.53549 | 31.47666 | 5492 ft | 219 kts | 335° |
| 2026-04-28 18:45 | 29.54952 | 31.46934 | 5007 ft | 224 kts | 335° |
| 2026-04-28 18:46 | 29.56384 | 31.46189 | 4519 ft | 228 kts | 336° |
| 2026-04-28 18:46 | 29.57836 | 31.45434 | 4061 ft | 229 kts | 336° |
| 2026-04-28 18:46 | 29.59283 | 31.44683 | 3654 ft | 226 kts | 336° |
| 2026-04-28 18:46 | 29.60680 | 31.43961 | 3240 ft | 221 kts | 335° |
| 2026-04-28 18:47 | 29.62068 | 31.43239 | 2917 ft | 216 kts | 336° |
| 2026-04-28 18:47 | 29.63410 | 31.42540 | 2889 ft | 213 kts | 335° |
| 2026-04-28 18:47 | 29.64765 | 31.41837 | 2874 ft | 213 kts | 335° |
| 2026-04-28 18:47 | 29.66111 | 31.41139 | 2876 ft | 212 kts | 335° |
| 2026-04-28 18:48 | 29.67454 | 31.40440 | 2875 ft | 212 kts | 335° |
| 2026-04-28 18:48 | 29.68809 | 31.39732 | 2873 ft | 215 kts | 336° |
| 2026-04-28 18:48 | 29.70173 | 31.39020 | 2874 ft | 215 kts | 336° |
| 2026-04-28 18:48 | 29.71535 | 31.38310 | 2875 ft | 214 kts | 336° |
| 2026-04-28 18:49 | 29.72895 | 31.37601 | 2877 ft | 215 kts | 336° |
| 2026-04-28 18:49 | 29.73796 | 31.37131 | 2872 ft | 215 kts | 336° |
| 2026-04-28 18:49 | 29.75615 | 31.36181 | 2877 ft | 215 kts | 336° |
| 2026-04-28 18:49 | 29.76979 | 31.35469 | 2877 ft | 215 kts | 336° |
| 2026-04-28 18:50 | 29.78345 | 31.34758 | 2875 ft | 216 kts | 336° |
| 2026-04-28 18:50 | 29.79713 | 31.34046 | 2875 ft | 215 kts | 336° |
| 2026-04-28 18:50 | 29.81066 | 31.33343 | 2880 ft | 212 kts | 336° |
| 2026-04-28 18:50 | 29.82408 | 31.32640 | 2884 ft | 212 kts | 336° |
| 2026-04-28 18:51 | 29.83756 | 31.31934 | 2882 ft | 214 kts | 336° |
| 2026-04-28 18:51 | 29.85112 | 31.31226 | 2885 ft | 214 kts | 336° |
| 2026-04-28 18:51 | 29.86470 | 31.30516 | 2887 ft | 215 kts | 336° |
| 2026-04-28 18:51 | 29.87830 | 31.29804 | 2882 ft | 216 kts | 336° |
| 2026-04-28 18:52 | 29.89206 | 31.29082 | 2884 ft | 215 kts | 336° |
| 2026-04-28 18:52 | 29.90569 | 31.28367 | 2886 ft | 215 kts | 336° |
| 2026-04-28 18:52 | 29.91933 | 31.27653 | 2885 ft | 215 kts | 336° |
| 2026-04-28 18:52 | 29.93293 | 31.26943 | 2892 ft | 216 kts | 336° |
| 2026-04-28 18:53 | 29.94674 | 31.26224 | 2883 ft | 218 kts | 335° |
| 2026-04-28 18:53 | 29.96041 | 31.25506 | 2828 ft | 214 kts | 335° |
| 2026-04-28 18:53 | 29.97421 | 31.24933 | 2587 ft | 210 kts | 354° |
| 2026-04-28 18:53 | 29.98849 | 31.25264 | 2499 ft | 217 kts | 26° |
| 2026-04-28 18:54 | 29.99965 | 31.26454 | 2497 ft | 222 kts | 45° |
| 2026-04-28 18:54 | 30.00962 | 31.27809 | 2497 ft | 222 kts | 46° |
| 2026-04-28 18:54 | 30.01979 | 31.29153 | 2493 ft | 220 kts | 44° |
| 2026-04-28 18:54 | 30.02949 | 31.30443 | 2490 ft | 205 kts | 45° |
| 2026-04-28 18:55 | 30.03851 | 31.31640 | 2342 ft | 194 kts | 44° |
| 2026-04-28 18:55 | 30.04440 | 31.32428 | 2124 ft | 189 kts | 44° |
| 2026-04-28 18:55 | 30.05547 | 31.33903 | 1750 ft | 178 kts | 45° |
| 2026-04-28 18:55 | 30.06332 | 31.34954 | 1508 ft | 168 kts | 44° |
| 2026-04-28 18:56 | 30.07080 | 31.35949 | 1298 ft | 161 kts | 44° |
| 2026-04-28 18:56 | 30.07803 | 31.36914 | 1091 ft | 159 kts | 45° |
| 2026-04-28 18:56 | 30.08482 | 31.37825 | 895 ft | 141 kts | 45° |
| 2026-04-28 18:56 | 30.09131 | 31.38688 | 722 ft | 142 kts | 45° |
| 2026-04-28 18:57 | 30.09762 | 31.39538 | 512 ft | 140 kts | 46° |
| 2026-04-28 18:57 | 30.10388 | 31.40401 | 390 ft | 134 kts | 45° |
| 2026-04-28 18:57 | 30.10937 | 31.41092 | 385 ft | 101 kts | 47° |
| 2026-04-28 18:57 | 30.11308 | 31.41563 | 384 ft | 62 kts | 31° |
| 2026-04-28 18:58 | 30.11474 | 31.41618 | 377 ft | 0 kts | 11° |
| 2026-04-28 19:00 | 30.11506 | 31.41622 | 375 ft | 10 kts | 3° |
| 2026-04-28 19:00 | 30.11557 | 31.41571 | 373 ft | 12 kts | 265° |
| 2026-04-28 19:00 | 30.11516 | 31.41498 | 369 ft | 10 kts | 228° |
| 2026-04-28 19:01 | 30.11466 | 31.41426 | 372 ft | 14 kts | 231° |
| 2026-04-28 19:01 | 30.11411 | 31.41320 | 371 ft | 18 kts | 267° |
| 2026-04-28 19:01 | 30.11390 | 31.41166 | 366 ft | 21 kts | 225° |
| 2026-04-28 19:01 | 30.11286 | 31.41029 | 363 ft | 24 kts | 232° |
| 2026-04-28 19:02 | 30.11174 | 31.40878 | 364 ft | 13 kts | 226° |
| 2026-04-28 19:02 | 30.11169 | 31.40872 | 364 ft | 0 kts | 225° |
| 2026-04-28 19:02 | 30.11110 | 31.40789 | 366 ft | 21 kts | 230° |
| 2026-04-28 19:03 | 30.11006 | 31.40648 | 367 ft | 25 kts | 230° |
| 2026-04-28 19:03 | 30.10884 | 31.40487 | 364 ft | 28 kts | 227° |
| 2026-04-28 19:03 | 30.10752 | 31.40310 | 370 ft | 30 kts | 230° |
| 2026-04-28 19:03 | 30.10610 | 31.40123 | 365 ft | 32 kts | 227° |
| 2026-04-28 19:04 | 30.10467 | 31.39931 | 365 ft | 30 kts | 231° |
| 2026-04-28 19:04 | 30.10398 | 31.39796 | 364 ft | 1 kts | 285° |
| 2026-04-28 19:04 | 30.10418 | 31.39783 | 350 ft | 12 kts | 338° |
| 2026-04-28 19:04 | 30.10509 | 31.39771 | 363 ft | 14 kts | 345° |
| 2026-04-28 19:05 | 30.10617 | 31.39705 | 354 ft | 21 kts | 312° |
| 2026-04-28 19:05 | 30.10608 | 31.39545 | 349 ft | 18 kts | 255° |
| 2026-04-28 19:05 | 30.10561 | 31.39510 | 353 ft | 8 kts | 184° |
| 2026-04-28 19:05 | 30.10508 | 31.39517 | 352 ft | 8 kts | 170° |
| 2026-04-28 19:06 | 30.10454 | 31.39532 | 359 ft | 8 kts | 164° |
| 2026-04-28 19:06 | 30.10420 | 31.39543 | 356 ft | 7 kts | 164° |
| 2026-04-28 19:06 | 30.10388 | 31.39506 | 361 ft | 7 kts | 250° |
| 2026-04-28 19:06 | 30.10383 | 31.39477 | 356 ft | 0 kts | 258° |